Time;durP1;ratioP1;P1;durP2;ratioP2;P2;SDS_P1;SDS_P2;PMS_P1;PMS_P2;Temp;Humidity;BMP_temperature;BMP_pressure;BME280_temperature;BME280_humidity;BME280_pressure;Samples;Min_cycle;Max_cycle;Signal;HPM_P1;HPM_P2
2020/12/18 00:01:29;;;;;;;3.13;1.80;;;;;;;17.50;56.40;102043.06;4836102;29;20029;-77
2020/12/18 00:03:59;;;;;;;4.20;2.10;;;;;;;17.48;56.58;102043.03;4833365;29;21554;-77
2020/12/18 00:06:30;;;;;;;4.22;1.90;;;;;;;17.50;56.44;102043.94;4844363;29;20089;-77
2020/12/18 00:08:55;;;;;;;3.22;1.98;;;;;;;17.47;56.46;102042.19;4832586;29;20038;-77
2020/12/18 00:11:26;;;;;;;3.83;2.00;;;;;;;17.47;56.58;102039.56;4845380;29;20045;-77
2020/12/18 00:13:52;;;;;;;2.40;1.65;;;;;;;17.47;56.32;102042.19;4846403;29;20441;-77
2020/12/18 00:16:19;;;;;;;3.88;2.13;;;;;;;17.46;56.30;102048.25;4844744;29;20109;-77
2020/12/18 00:18:45;;;;;;;2.83;1.80;;;;;;;17.47;56.28;102041.31;4841370;29;20087;-77
2020/12/18 00:21:11;;;;;;;3.92;2.22;;;;;;;17.47;56.26;102042.19;4835451;29;20037;-77
2020/12/18 00:23:36;;;;;;;3.22;1.60;;;;;;;17.46;56.20;102043.06;4841312;29;20069;-77
2020/12/18 00:26:02;;;;;;;2.70;1.80;;;;;;;17.45;56.34;102040.44;4806471;29;20038;-77
2020/12/18 00:28:27;;;;;;;3.10;2.20;;;;;;;17.44;56.13;102039.56;4847610;29;20033;-77
2020/12/18 00:30:53;;;;;;;2.90;1.83;;;;;;;17.46;56.31;102036.94;4845496;29;20830;-77
2020/12/18 00:33:18;;;;;;;2.35;1.63;;;;;;;17.46;56.16;102036.94;4839613;29;20030;-77
2020/12/18 00:35:43;;;;;;;3.70;1.85;;;;;;;17.46;55.93;102036.94;4833672;29;20048;-77
2020/12/18 00:38:09;;;;;;;2.05;1.40;;;;;;;17.46;55.99;102036.94;4850849;29;20029;-77
2020/12/18 00:40:35;;;;;;;3.20;1.75;;;;;;;17.45;56.23;102033.47;4845917;29;20042;-77
2020/12/18 00:43:00;;;;;;;3.70;2.00;;;;;;;17.44;56.33;102030.84;4840246;29;20060;-78
2020/12/18 00:45:25;;;;;;;3.60;1.70;;;;;;;17.42;56.03;102030.88;4822825;29;20038;-78
2020/12/18 00:47:51;;;;;;;2.38;1.60;;;;;;;17.43;56.04;102032.59;4809869;29;20176;-78
2020/12/18 00:50:16;;;;;;;3.28;1.90;;;;;;;17.44;56.03;102028.25;4840809;29;20070;-77
2020/12/18 00:52:42;;;;;;;3.40;1.80;;;;;;;17.44;55.88;102034.34;4837586;29;20128;-77
2020/12/18 00:55:07;;;;;;;3.55;1.67;;;;;;;17.44;55.90;102033.47;4819825;29;20034;-77
2020/12/18 00:57:32;;;;;;;3.50;1.75;;;;;;;17.43;55.86;102031.72;4843807;29;20553;-77
2020/12/18 00:59:58;;;;;;;2.50;1.60;;;;;;;17.43;56.07;102021.31;4820016;29;20066;-77
2020/12/18 01:02:23;;;;;;;2.72;1.65;;;;;;;17.44;55.84;102028.25;4844006;29;20081;-77
2020/12/18 01:04:48;;;;;;;2.47;1.55;;;;;;;17.43;55.80;102027.38;4822037;29;20129;-77
2020/12/18 01:07:16;;;;;;;3.15;1.60;;;;;;;17.42;55.61;102030.88;4841860;29;20438;-77
2020/12/18 01:09:43;;;;;;;2.50;1.58;;;;;;;17.43;55.80;102029.13;4847142;29;20034;-78
2020/12/18 01:12:11;;;;;;;2.47;1.52;;;;;;;17.44;55.74;102029.16;4838895;29;20125;-77
2020/12/18 01:14:36;;;;;;;2.60;1.65;;;;;;;17.43;56.03;102031.72;4837297;29;20363;-77
2020/12/18 01:17:02;;;;;;;1.98;1.25;;;;;;;17.42;55.75;102030.88;4823761;29;20059;-77
2020/12/18 01:19:27;;;;;;;3.10;1.63;;;;;;;17.42;55.70;102022.16;4838372;29;20163;-77
2020/12/18 01:21:53;;;;;;;3.08;1.33;;;;;;;17.42;55.80;102022.16;4824885;29;20394;-77
2020/12/18 01:24:19;;;;;;;2.03;1.30;;;;;;;17.41;55.73;102023.91;4834555;29;20040;-77
2020/12/18 01:26:46;;;;;;;2.63;1.35;;;;;;;17.40;55.56;102024.78;4836340;29;20398;-78
2020/12/18 01:29:11;;;;;;;3.22;1.85;;;;;;;17.39;55.79;102019.53;4820038;29;20550;-77
2020/12/18 01:31:37;;;;;;;4.05;1.52;;;;;;;17.39;55.66;102025.59;4829530;29;20137;-77
2020/12/18 01:34:02;;;;;;;2.70;1.25;;;;;;;17.41;55.58;102015.22;4837161;29;20505;-77
2020/12/18 01:36:28;;;;;;;2.53;1.50;;;;;;;17.39;55.74;102015.19;4854940;29;20061;-77
2020/12/18 01:38:53;;;;;;;2.80;1.42;;;;;;;17.39;55.62;102017.81;4829364;29;20053;-77
2020/12/18 01:41:18;;;;;;;2.72;1.42;;;;;;;17.41;55.59;102017.81;4844837;29;20033;-77
2020/12/18 01:43:44;;;;;;;2.35;1.50;;;;;;;17.39;55.44;102023.00;4839473;29;20046;-77
2020/12/18 01:46:12;;;;;;;3.25;1.60;;;;;;;17.38;55.46;102020.41;4842346;29;20126;-77
2020/12/18 01:48:40;;;;;;;2.35;1.30;;;;;;;17.38;55.42;102020.41;4843956;29;20109;-77
2020/12/18 01:51:24;;;;;;;2.38;1.58;;;;;;;17.37;55.49;102024.72;4844707;29;20450;-78
2020/12/18 01:53:51;;;;;;;2.20;1.33;;;;;;;17.39;55.38;102027.34;4826159;29;20042;-77
2020/12/18 01:56:16;;;;;;;2.15;1.35;;;;;;;17.37;55.57;102029.91;4844716;29;20041;-77
2020/12/18 01:58:43;;;;;;;2.70;1.30;;;;;;;17.38;55.49;102029.09;4842764;29;20049;-77
2020/12/18 02:01:09;;;;;;;2.15;1.38;;;;;;;17.38;55.53;102030.81;4846427;29;20045;-78
2020/12/18 02:03:36;;;;;;;2.33;1.20;;;;;;;17.36;55.40;102024.72;4842957;29;20034;-77
2020/12/18 02:06:17;;;;;;;2.63;1.48;;;;;;;17.35;55.43;102017.75;4842288;29;20052;-78
2020/12/18 02:08:43;;;;;;;2.50;1.27;;;;;;;17.36;55.18;102022.13;4842162;29;20109;-78
2020/12/18 02:11:20;;;;;;;2.83;1.40;;;;;;;17.36;55.35;102019.53;4854334;29;20078;-77
2020/12/18 02:13:49;;;;;;;2.50;1.33;;;;;;;17.35;55.45;102012.56;4827186;29;20046;-77
2020/12/18 02:16:15;;;;;;;2.15;1.15;;;;;;;17.35;55.46;102010.81;4840289;29;20038;-77
2020/12/18 02:18:41;;;;;;;2.05;1.30;;;;;;;17.34;55.38;102006.50;4836304;29;20038;-77
2020/12/18 02:21:06;;;;;;;1.60;1.17;;;;;;;17.36;55.22;101999.56;4810279;29;20384;-78
2020/12/18 02:23:32;;;;;;;3.15;1.55;;;;;;;17.35;55.38;102003.00;4851079;29;20037;-78
2020/12/18 02:26:06;;;;;;;2.03;1.27;;;;;;;17.35;55.25;102009.94;4836334;29;20034;-77
2020/12/18 02:28:34;;;;;;;3.05;1.23;;;;;;;17.35;55.21;102017.75;4837028;29;20038;-77
2020/12/18 02:31:00;;;;;;;1.85;1.10;;;;;;;17.34;55.16;102016.91;4838484;29;20057;-77
2020/12/18 02:33:25;;;;;;;2.83;1.30;;;;;;;17.34;55.21;102009.09;4841692;29;20034;-77
2020/12/18 02:35:50;;;;;;;2.67;1.13;;;;;;;17.34;54.94;102010.81;4818184;29;20034;-77
2020/12/18 02:38:16;;;;;;;2.15;1.23;;;;;;;17.33;55.37;102009.94;4863107;29;20026;-77
2020/12/18 02:40:41;;;;;;;2.78;1.50;;;;;;;17.34;55.07;102021.22;4848529;29;20113;-77
2020/12/18 02:43:07;;;;;;;2.22;1.25;;;;;;;17.32;55.17;102008.19;4825642;29;20046;-78
2020/12/18 02:45:32;;;;;;;2.33;1.30;;;;;;;17.32;55.14;102003.00;4827230;29;20042;-77
2020/12/18 02:47:57;;;;;;;1.58;1.10;;;;;;;17.31;55.17;102001.25;4847372;29;20037;-77
2020/12/18 02:50:23;;;;;;;1.65;1.15;;;;;;;17.29;55.06;101987.38;4821488;29;20034;-77
2020/12/18 02:52:49;;;;;;;1.42;1.10;;;;;;;17.33;55.16;101990.84;4838046;29;20036;-77
2020/12/18 02:55:14;;;;;;;2.15;1.23;;;;;;;17.30;55.09;101986.50;4827500;29;20125;-77
2020/12/18 02:57:39;;;;;;;2.53;1.23;;;;;;;17.30;55.24;101994.31;4840724;29;20097;-77
2020/12/18 03:00:06;;;;;;;2.03;1.20;;;;;;;17.31;55.09;101990.84;4854595;29;20114;-77
2020/12/18 03:02:31;;;;;;;1.70;1.20;;;;;;;17.32;55.04;101976.13;4847287;29;20038;-77
2020/12/18 03:04:56;;;;;;;1.98;1.10;;;;;;;17.31;55.11;101988.25;4826972;29;20137;-77
2020/12/18 03:07:22;;;;;;;2.25;1.42;;;;;;;17.29;54.98;101974.34;4847426;29;20071;-78
2020/12/18 03:09:48;;;;;;;1.75;1.10;;;;;;;17.28;55.12;101975.19;4857001;29;20041;-78
2020/12/18 03:12:13;;;;;;;2.22;1.20;;;;;;;17.27;54.97;101968.28;4852913;29;20090;-78
2020/12/18 03:14:38;;;;;;;2.05;1.10;;;;;;;17.28;54.95;101970.84;4840891;29;20037;-76
2020/12/18 03:17:04;;;;;;;1.95;1.10;;;;;;;17.27;55.05;101966.53;4843631;29;20038;-77
2020/12/18 03:19:29;;;;;;;2.58;1.15;;;;;;;17.26;54.86;101975.19;4840332;29;20033;-77
2020/12/18 03:21:54;;;;;;;2.08;1.30;;;;;;;17.27;55.15;101974.34;4843749;29;20520;-77
2020/12/18 03:24:20;;;;;;;1.98;1.17;;;;;;;17.28;55.08;101975.19;4851545;29;20038;-77
2020/12/18 03:26:45;;;;;;;1.98;1.17;;;;;;;17.27;54.96;101976.06;4845174;29;20116;-77
2020/12/18 03:29:10;;;;;;;1.92;1.25;;;;;;;17.27;54.92;101968.28;4828003;29;20073;-77
2020/12/18 03:31:36;;;;;;;1.42;1.00;;;;;;;17.27;54.89;101970.88;4846290;29;20071;-77
2020/12/18 03:34:01;;;;;;;2.22;1.00;;;;;;;17.25;54.84;101973.44;4854375;29;20385;-77
2020/12/18 03:36:27;;;;;;;2.30;1.30;;;;;;;17.22;55.03;101970.81;4844806;29;20064;-77
2020/12/18 03:38:52;;;;;;;1.98;1.20;;;;;;;17.24;54.90;101969.09;4829223;29;20098;-77
2020/12/18 03:41:18;;;;;;;2.08;1.20;;;;;;;17.24;54.98;101968.22;4843933;29;20129;-77
2020/12/18 03:43:44;;;;;;;1.38;0.90;;;;;;;17.25;54.84;101970.84;4839019;29;20061;-77
2020/12/18 03:46:11;;;;;;;2.33;1.20;;;;;;;17.24;54.74;101976.88;4842096;29;20033;-77
2020/12/18 03:48:36;;;;;;;2.08;1.10;;;;;;;17.24;54.80;101979.50;4849843;29;20041;-77
2020/12/18 03:51:01;;;;;;;2.88;1.20;;;;;;;17.24;54.92;101971.69;4842866;29;20397;-77
2020/12/18 03:53:27;;;;;;;2.08;1.13;;;;;;;17.25;55.00;101964.78;4838436;29;20430;-76
2020/12/18 03:55:52;;;;;;;2.50;1.48;;;;;;;17.24;54.96;101963.00;4808021;29;20470;-77
2020/12/18 03:58:17;;;;;;;3.05;1.23;;;;;;;17.24;54.86;101957.81;4822775;29;20125;-76
2020/12/18 04:00:43;;;;;;;2.08;1.10;;;;;;;17.25;54.90;101957.84;4833368;29;20034;-76
2020/12/18 04:03:08;;;;;;;2.17;1.48;;;;;;;17.24;54.77;101957.81;4835667;29;20485;-76
2020/12/18 04:05:33;;;;;;;2.75;1.27;;;;;;;17.25;54.83;101963.03;4809409;29;20038;-77
2020/12/18 04:07:59;;;;;;;2.25;1.00;;;;;;;17.24;54.99;101956.06;4832295;29;20504;-76
2020/12/18 04:10:24;;;;;;;2.15;1.10;;;;;;;17.24;54.79;101965.63;4838177;29;20451;-77
2020/12/18 04:12:49;;;;;;;1.90;1.20;;;;;;;17.23;54.82;101956.94;4813395;29;20035;-77
2020/12/18 04:15:15;;;;;;;2.55;1.27;;;;;;;17.23;54.82;101951.75;4821643;29;20439;-77
2020/12/18 04:17:42;;;;;;;2.00;1.23;;;;;;;17.21;54.69;101948.25;4840551;29;20485;-76
2020/12/18 04:20:07;;;;;;;2.25;1.27;;;;;;;17.22;54.85;101947.41;4852659;29;20034;-77
2020/12/18 04:22:32;;;;;;;3.78;1.48;;;;;;;17.21;54.85;101943.06;4845009;29;20082;-77
2020/12/18 04:24:58;;;;;;;2.08;1.27;;;;;;;17.21;54.85;101939.59;4830946;29;20033;-77
2020/12/18 04:27:23;;;;;;;1.67;1.08;;;;;;;17.21;54.68;101931.78;4840373;29;20034;-76
2020/12/18 04:29:48;;;;;;;2.08;0.90;;;;;;;17.23;54.74;101925.72;4824584;29;20045;-76
2020/12/18 04:32:14;;;;;;;1.65;1.10;;;;;;;17.20;54.86;101928.31;4856580;29;20057;-76
2020/12/18 04:34:39;;;;;;;1.83;1.30;;;;;;;17.21;54.77;101929.19;4830202;29;20041;-77
2020/12/18 04:37:05;;;;;;;1.50;1.10;;;;;;;17.20;54.70;101928.31;4845509;29;20084;-76
2020/12/18 04:39:30;;;;;;;2.17;1.20;;;;;;;17.22;54.87;101925.72;4852018;29;20529;-76
2020/12/18 04:41:55;;;;;;;2.10;1.27;;;;;;;17.22;54.87;101917.91;4878502;29;20022;-76
2020/12/18 04:44:22;;;;;;;2.17;1.25;;;;;;;17.21;54.72;101913.56;4863669;29;20033;-77
2020/12/18 04:46:49;;;;;;;1.80;1.10;;;;;;;17.21;54.81;101914.44;4847403;29;20054;-77
2020/12/18 04:49:14;;;;;;;2.33;1.20;;;;;;;17.20;54.71;101911.81;4864690;29;20586;-77
2020/12/18 04:51:42;;;;;;;2.30;1.30;;;;;;;17.21;54.69;101908.38;4849368;29;20124;-77
2020/12/18 04:54:10;;;;;;;2.67;1.23;;;;;;;17.21;54.69;101910.97;4839206;29;20037;-77
2020/12/18 04:56:38;;;;;;;1.85;1.00;;;;;;;17.20;54.63;101906.63;4840301;29;20116;-77
2020/12/18 04:59:05;;;;;;;1.83;1.05;;;;;;;17.19;54.50;101905.75;4846105;29;20025;-76
2020/12/18 05:01:31;;;;;;;1.67;1.05;;;;;;;17.19;54.69;101903.16;4856659;29;20094;-76
2020/12/18 05:03:58;;;;;;;1.83;1.13;;;;;;;17.20;54.70;101904.91;4850264;29;20124;-76
2020/12/18 05:06:23;;;;;;;1.95;1.10;;;;;;;17.20;54.68;101904.00;4850176;29;20033;-76
2020/12/18 05:08:49;;;;;;;1.90;1.00;;;;;;;17.18;54.73;101897.91;4844044;29;20163;-77
2020/12/18 05:11:27;;;;;;;3.67;1.05;;;;;;;17.19;54.62;101899.69;4860118;29;20033;-76
2020/12/18 05:13:55;;;;;;;2.22;1.20;;;;;;;17.18;54.56;101898.81;4834029;29;20030;-76
2020/12/18 05:16:22;;;;;;;1.77;1.10;;;;;;;17.18;54.80;101897.91;4842625;29;20025;-76
2020/12/18 05:18:52;;;;;;;1.73;1.00;;;;;;;17.18;54.68;101897.91;4857244;29;20050;-76
2020/12/18 05:21:18;;;;;;;1.60;1.00;;;;;;;17.18;54.72;101892.72;4842902;29;20089;-76
2020/12/18 05:23:47;;;;;;;1.55;1.08;;;;;;;17.17;54.63;101889.25;4840035;29;20041;-76
2020/12/18 05:26:14;;;;;;;1.30;1.00;;;;;;;17.16;54.73;101891.84;4842106;29;20477;-77
2020/12/18 05:28:45;;;;;;;1.92;1.27;;;;;;;17.16;54.38;101873.63;4838541;29;20069;-76
2020/12/18 05:31:16;;;;;;;2.13;1.30;;;;;;;17.17;54.59;101885.78;4852721;29;20046;-76
2020/12/18 05:33:47;;;;;;;2.33;1.10;;;;;;;17.17;54.74;101891.84;4854866;29;20036;-77
2020/12/18 05:36:13;;;;;;;1.48;1.02;;;;;;;17.16;54.60;101874.53;4839956;29;20030;-78
2020/12/18 05:38:40;;;;;;;3.05;1.23;;;;;;;17.16;54.67;101864.13;4837644;29;20048;-76
2020/12/18 05:41:07;;;;;;;2.10;0.95;;;;;;;17.15;54.52;101874.50;4840497;29;20026;-77
2020/12/18 05:43:37;;;;;;;1.65;1.00;;;;;;;17.15;54.51;101877.97;4860265;29;20120;-77
2020/12/18 05:46:26;;;;;;;2.17;1.30;;;;;;;17.16;54.68;101879.72;4849913;29;20552;-76
2020/12/18 05:48:59;;;;;;;2.05;1.00;;;;;;;17.18;54.62;101874.50;4844327;29;20115;-76
2020/12/18 05:51:27;;;;;;;1.40;1.00;;;;;;;17.15;54.77;101867.56;4849253;29;20045;-76
2020/12/18 05:54:10;;;;;;;1.63;1.00;;;;;;;17.17;55.11;101870.19;4852317;29;20081;-77
2020/12/18 05:56:37;;;;;;;1.63;0.90;;;;;;;17.20;54.86;101875.41;4855976;29;20025;-77
2020/12/18 05:59:20;;;;;;;1.90;0.95;;;;;;;17.19;55.04;101886.69;4839986;29;20109;-77
2020/12/18 06:01:47;;;;;;;1.63;1.10;;;;;;;17.19;55.05;101873.66;4859817;29;20026;-77
2020/12/18 06:04:14;;;;;;;1.73;0.90;;;;;;;17.20;55.07;101880.59;4859132;29;20488;-77
2020/12/18 06:06:51;;;;;;;1.73;1.00;;;;;;;17.19;55.24;101882.34;4851137;29;20045;-77
2020/12/18 06:09:21;;;;;;;1.90;1.10;;;;;;;17.19;55.28;101879.75;4845874;29;20487;-78
2020/12/18 06:11:48;;;;;;;3.53;1.38;;;;;;;17.26;55.43;101888.47;4852290;29;20042;-78
2020/12/18 06:14:17;;;;;;;6.63;1.90;;;;;;;17.28;55.22;101881.53;4849479;29;20484;-77
2020/12/18 06:16:47;;;;;;;3.83;1.42;;;;;;;17.38;55.46;101874.69;4861212;29;20056;-77
2020/12/18 06:19:15;;;;;;;6.43;1.77;;;;;;;17.40;55.25;101871.25;4853654;29;20116;-77
2020/12/18 06:21:41;;;;;;;4.72;1.70;;;;;;;17.40;55.08;101860.84;4861271;29;20022;-77
2020/12/18 06:24:08;;;;;;;11.32;1.85;;;;;;;17.41;55.18;101856.50;4847553;29;20085;-77
2020/12/18 06:26:34;;;;;;;6.90;1.92;;;;;;;17.41;55.10;101859.97;4855157;29;20552;-77
2020/12/18 06:29:05;;;;;;;6.68;1.65;;;;;;;17.42;55.34;101863.44;4846349;29;20041;-77
2020/12/18 06:31:31;;;;;;;6.00;1.73;;;;;;;17.43;55.36;101878.19;4861430;29;20053;-77
2020/12/18 06:33:59;;;;;;;2.63;1.38;;;;;;;17.44;55.40;101878.22;4838111;29;20371;-77
2020/12/18 06:36:43;;;;;;;3.10;1.50;;;;;;;17.43;55.25;101875.59;4853783;29;20088;-77
2020/12/18 06:39:23;;;;;;;3.70;1.50;;;;;;;17.45;55.57;101879.09;4872276;29;20043;-77
2020/12/18 06:42:12;;;;;;;2.67;1.60;;;;;;;17.46;55.27;101880.81;4867984;29;20057;-79
2020/12/18 06:44:46;;;;;;;3.58;1.30;;;;;;;17.45;55.51;101877.34;4868621;29;20030;-77
2020/12/18 06:47:13;;;;;;;3.58;1.40;;;;;;;17.47;55.22;101872.16;4845986;29;20093;-76
2020/12/18 06:50:02;;;;;;;3.63;1.30;;;;;;;17.48;55.42;101868.69;4846895;29;20396;-78
2020/12/18 06:52:49;;;;;;;3.13;1.08;;;;;;;17.47;55.28;101861.75;4840345;29;20394;-77
2020/12/18 06:55:27;;;;;;;3.05;1.40;;;;;;;17.47;55.57;101878.22;4854458;29;20045;-77
2020/12/18 06:58:07;;;;;;;5.80;1.35;;;;;;;17.48;55.42;101881.69;4857340;29;20615;-77
2020/12/18 07:00:42;;;;;;;2.00;1.13;;;;;;;17.48;55.75;101881.69;4881153;29;20080;-78
2020/12/18 07:03:09;;;;;;;3.33;1.27;;;;;;;17.50;55.63;101882.56;4847514;29;20040;-76
2020/12/18 07:05:43;;;;;;;2.22;1.20;;;;;;;17.50;55.56;101881.72;4864190;29;20025;-76
2020/12/18 07:08:13;;;;;;;2.33;1.38;;;;;;;17.48;55.65;101887.78;4850424;29;20033;-77
2020/12/18 07:10:41;;;;;;;2.67;1.17;;;;;;;17.50;55.49;101899.94;4865682;29;20041;-77
2020/12/18 07:13:08;;;;;;;3.90;1.45;;;;;;;17.50;55.63;101893.00;4882168;29;20040;-77
2020/12/18 07:15:42;;;;;;;3.55;1.15;;;;;;;17.50;55.54;101897.34;4868743;29;20037;-77
2020/12/18 07:18:13;;;;;;;4.22;1.23;;;;;;;17.50;55.56;101903.41;4862292;29;20033;-77
2020/12/18 07:20:44;;;;;;;3.13;1.23;;;;;;;17.52;55.70;101895.63;4845532;29;20029;-77
2020/12/18 07:23:09;;;;;;;3.00;1.10;;;;;;;17.52;55.57;101906.03;4865222;29;20037;-77
2020/12/18 07:25:34;;;;;;;2.38;1.40;;;;;;;17.52;55.53;101916.44;4836684;29;20124;-76
2020/12/18 07:28:00;;;;;;;3.53;1.30;;;;;;;17.52;55.54;101913.84;4861987;29;20133;-77
2020/12/18 07:30:25;;;;;;;2.03;1.10;;;;;;;17.53;55.71;101912.97;4860439;29;20052;-76
2020/12/18 07:32:51;;;;;;;2.75;1.00;;;;;;;17.52;55.52;101916.44;4848332;29;20072;-76
2020/12/18 07:35:17;;;;;;;2.90;1.20;;;;;;;17.53;55.77;101932.06;4876177;29;20041;-76
2020/12/18 07:37:42;;;;;;;1.90;1.10;;;;;;;17.54;55.47;101935.53;4831006;29;20128;-76
2020/12/18 07:40:07;;;;;;;3.47;1.23;;;;;;;17.56;55.82;101939.03;4831132;29;20041;-76
2020/12/18 07:42:33;;;;;;;3.55;1.20;;;;;;;17.58;55.58;101937.31;4828395;29;20030;-77
2020/12/18 07:45:16;;;;;;;5.15;1.20;;;;;;;17.56;55.65;101937.28;4827282;29;20041;-76
2020/12/18 07:47:42;;;;;;;1.95;1.20;;;;;;;17.55;55.61;101932.97;4851717;29;20038;-76
2020/12/18 07:50:08;;;;;;;1.95;1.00;;;;;;;17.57;55.63;101938.16;4839733;29;20042;-76
2020/12/18 07:52:35;;;;;;;4.45;1.13;;;;;;;17.58;55.71;101926.91;4824431;29;20037;-76
2020/12/18 07:55:01;;;;;;;2.80;1.35;;;;;;;17.57;55.84;101926.03;4859458;29;20030;-75
2020/12/18 07:57:27;;;;;;;2.10;1.15;;;;;;;17.58;55.76;101929.50;4844882;29;20480;-76
2020/12/18 08:00:09;;;;;;;2.00;1.13;;;;;;;17.58;55.88;101927.75;4853782;29;20045;-77
2020/12/18 08:02:34;;;;;;;3.05;1.30;;;;;;;17.59;55.75;101924.28;4852240;29;20044;-78
2020/12/18 08:05:01;;;;;;;1.67;1.25;;;;;;;17.58;55.74;101919.09;4828421;29;20041;-75
2020/12/18 08:07:30;;;;;;;4.90;1.27;;;;;;;17.60;55.54;101918.25;4861487;29;20096;-75
2020/12/18 08:10:03;;;;;;;2.05;1.20;;;;;;;17.60;55.73;101915.63;4838893;29;20033;-76
2020/12/18 08:12:29;;;;;;;3.97;1.20;;;;;;;17.61;55.67;101921.69;4843273;29;20034;-77
2020/12/18 08:15:08;;;;;;;3.42;1.40;;;;;;;17.60;55.81;101923.44;4858880;29;20048;-76
2020/12/18 08:17:35;;;;;;;1.42;1.08;;;;;;;17.63;55.79;101925.19;4823227;29;20485;-76
2020/12/18 08:20:02;;;;;;;3.20;1.40;;;;;;;17.63;55.69;101926.06;4843106;29;20057;-76
2020/12/18 08:22:33;;;;;;;2.25;1.30;;;;;;;17.63;55.47;101933.88;4860631;29;20389;-76
2020/12/18 08:24:59;;;;;;;2.08;1.00;;;;;;;17.64;55.33;101917.41;4859434;29;20029;-75
2020/12/18 08:27:29;;;;;;;2.17;1.40;;;;;;;17.66;55.47;101933.03;4841656;29;20478;-76
2020/12/18 08:29:54;;;;;;;1.77;1.20;;;;;;;17.67;55.54;101922.63;4858851;29;20132;-77
2020/12/18 08:32:23;;;;;;;1.75;1.08;;;;;;;17.68;55.40;101924.38;4849868;29;20133;-76
2020/12/18 08:34:49;;;;;;;3.20;1.20;;;;;;;17.69;55.49;101920.03;4858272;29;20489;-77
2020/12/18 08:37:23;;;;;;;1.48;1.10;;;;;;;17.68;55.53;101921.78;4827199;29;20095;-76
2020/12/18 08:39:48;;;;;;;1.73;1.20;;;;;;;17.72;55.42;101935.66;4829031;29;20121;-76
2020/12/18 08:42:14;;;;;;;2.13;1.40;;;;;;;17.73;55.43;101931.34;4844930;29;20116;-77
2020/12/18 08:44:44;;;;;;;4.65;1.25;;;;;;;17.72;55.35;101922.66;4849645;29;20033;-77
2020/12/18 08:47:27;;;;;;;1.75;1.38;;;;;;;17.72;55.23;101922.66;4858541;29;20025;-77
2020/12/18 08:49:55;;;;;;;2.70;1.40;;;;;;;17.75;55.20;101927.03;4861277;29;20032;-76
2020/12/18 08:52:30;;;;;;;4.60;1.50;;;;;;;17.74;55.03;101920.94;4838639;29;20045;-77
2020/12/18 08:55:07;;;;;;;2.08;1.27;;;;;;;17.75;55.29;101914.88;4857429;29;20029;-77
2020/12/18 08:57:33;;;;;;;5.22;1.70;;;;;;;17.77;55.38;101917.47;4856466;29;20501;-77
2020/12/18 09:00:12;;;;;;;2.50;1.42;;;;;;;17.77;55.25;101910.56;4856407;29;20044;-77
2020/12/18 09:02:41;;;;;;;1.77;1.30;;;;;;;17.77;55.19;101910.56;4862492;29;20812;-76
2020/12/18 09:05:29;;;;;;;2.58;1.30;;;;;;;17.75;55.09;101907.06;4863502;29;20033;-77
2020/12/18 09:08:07;;;;;;;3.22;1.70;;;;;;;17.77;55.16;101913.16;4851374;29;20037;-77
2020/12/18 09:10:53;;;;;;;2.08;1.48;;;;;;;17.77;55.03;101907.94;4860637;29;20041;-77
2020/12/18 09:13:18;;;;;;;2.05;1.30;;;;;;;17.79;54.83;101913.16;4859575;29;20392;-77
2020/12/18 09:16:08;;;;;;;3.15;1.35;;;;;;;17.82;55.27;101908.00;4860916;29;20036;-77
2020/12/18 09:18:36;;;;;;;1.98;1.33;;;;;;;17.83;55.29;101912.34;4857871;29;20097;-77
2020/12/18 09:21:11;;;;;;;1.80;1.30;;;;;;;17.84;54.89;101914.97;4842637;29;20502;-78
2020/12/18 09:23:37;;;;;;;2.22;1.35;;;;;;;17.83;54.93;101910.63;4855581;29;20401;-76
2020/12/18 09:26:03;;;;;;;2.70;1.45;;;;;;;17.86;55.09;101908.03;4860069;29;20033;-76
2020/12/18 09:28:37;;;;;;;2.85;1.42;;;;;;;17.86;55.11;101918.44;4845844;29;20029;-77
2020/12/18 09:31:04;;;;;;;2.85;1.60;;;;;;;17.87;54.96;101911.50;4862695;29;20609;-77
2020/12/18 09:33:32;;;;;;;2.42;1.45;;;;;;;17.91;54.99;101925.44;4862782;29;20401;-77
2020/12/18 09:36:24;;;;;;;2.97;1.50;;;;;;;17.89;54.95;101923.66;4846261;29;20548;-77
2020/12/18 09:38:53;;;;;;;2.80;1.60;;;;;;;17.92;55.10;101937.56;4867185;29;20049;-77
2020/12/18 09:41:20;;;;;;;2.20;1.48;;;;;;;17.90;54.92;101914.16;4841180;29;20464;-77
2020/12/18 09:43:47;;;;;;;2.03;1.45;;;;;;;17.91;54.87;101917.63;4847172;29;20033;-77
2020/12/18 09:46:12;;;;;;;2.28;1.30;;;;;;;17.92;54.90;101928.06;4862984;29;20026;-77
2020/12/18 09:48:46;;;;;;;1.60;1.20;;;;;;;17.93;54.85;101936.72;4847141;29;20161;-77
2020/12/18 09:51:12;;;;;;;2.97;1.48;;;;;;;17.95;54.82;101937.59;4859191;29;20033;-77
2020/12/18 09:53:38;;;;;;;2.35;1.30;;;;;;;17.96;54.56;101936.72;4843699;29;20385;-77
2020/12/18 09:56:07;;;;;;;1.85;1.25;;;;;;;17.95;54.78;101933.25;4835082;29;20040;-77
2020/12/18 09:58:32;;;;;;;2.25;1.38;;;;;;;17.96;55.09;101918.50;4847258;29;20029;-78
2020/12/18 10:00:57;;;;;;;2.85;1.30;;;;;;;17.96;54.95;101913.28;4846395;29;20437;-77
2020/12/18 10:03:23;;;;;;;2.83;1.50;;;;;;;17.98;55.15;101916.78;4829033;29;20440;-76
2020/12/18 10:05:48;;;;;;;1.75;1.20;;;;;;;17.96;55.32;101918.50;4812911;29;20036;-77
2020/12/18 10:08:14;;;;;;;2.55;1.58;;;;;;;17.98;55.13;101909.84;4826459;29;20057;-77
2020/12/18 10:10:39;;;;;;;2.50;1.42;;;;;;;17.98;55.23;101909.84;4831314;29;20042;-77
2020/12/18 10:13:05;;;;;;;3.08;1.40;;;;;;;18.00;55.29;101915.06;4828832;29;20033;-77
2020/12/18 10:15:30;;;;;;;3.00;1.50;;;;;;;18.01;55.18;101909.00;4862958;29;20495;-78
2020/12/18 10:17:56;;;;;;;3.53;1.50;;;;;;;18.01;55.10;101906.41;4863520;29;20034;-77
2020/12/18 10:20:22;;;;;;;3.80;1.50;;;;;;;18.01;55.12;101904.66;4846360;29;20040;-77
2020/12/18 10:22:48;;;;;;;2.05;1.30;;;;;;;18.02;55.25;101905.53;4856709;29;20057;-77
2020/12/18 10:25:14;;;;;;;2.25;1.40;;;;;;;18.01;55.03;101903.78;4861406;29;20084;-77
2020/12/18 10:27:43;;;;;;;2.70;1.30;;;;;;;18.03;55.13;101902.03;4831937;29;20026;-77
2020/12/18 10:30:09;;;;;;;2.03;1.40;;;;;;;18.03;55.20;101889.91;4858576;29;20094;-78
2020/12/18 10:32:35;;;;;;;2.08;1.30;;;;;;;18.03;54.97;101887.31;4844510;29;20053;-77
2020/12/18 10:35:00;;;;;;;3.50;1.50;;;;;;;18.06;54.86;101883.84;4842884;29;20033;-77
2020/12/18 10:37:27;;;;;;;3.17;1.30;;;;;;;18.04;54.94;101880.34;4831150;29;20030;-77
2020/12/18 10:39:53;;;;;;;2.25;1.30;;;;;;;18.06;54.84;101889.06;4840109;29;20030;-77
2020/12/18 10:42:18;;;;;;;2.53;1.10;;;;;;;18.05;55.11;101876.88;4844388;29;20017;-77
2020/12/18 10:44:44;;;;;;;1.95;1.20;;;;;;;18.06;55.01;101865.59;4839791;29;20022;-77
2020/12/18 10:47:10;;;;;;;2.20;1.25;;;;;;;18.06;54.93;101860.41;4858485;29;20045;-77
2020/12/18 10:49:35;;;;;;;1.60;1.00;;;;;;;18.05;54.94;101846.50;4846918;29;20030;-78
2020/12/18 10:52:03;;;;;;;2.17;1.30;;;;;;;18.05;54.88;101827.38;4853808;29;20045;-77
2020/12/18 10:54:29;;;;;;;1.85;1.27;;;;;;;18.05;54.87;101822.19;4832754;29;20078;-77
2020/12/18 10:56:58;;;;;;;1.70;1.17;;;;;;;18.06;54.95;101834.34;4861727;29;20037;-77
2020/12/18 10:59:26;;;;;;;1.15;0.90;;;;;;;18.06;55.02;101837.81;4842549;29;20105;-77
2020/12/18 11:01:53;;;;;;;1.85;1.10;;;;;;;18.07;54.83;101836.09;4846512;29;20044;-77
2020/12/18 11:04:18;;;;;;;2.03;1.17;;;;;;;18.07;54.96;101829.16;4830394;29;20040;-77
2020/12/18 11:06:44;;;;;;;2.60;1.38;;;;;;;18.08;54.98;101837.84;4834167;29;20034;-78
2020/12/18 11:09:10;;;;;;;2.08;1.20;;;;;;;18.09;54.89;101837.84;4833118;29;20033;-78
2020/12/18 11:11:35;;;;;;;3.63;1.27;;;;;;;18.10;55.02;101843.94;4840676;29;20035;-78
2020/12/18 11:14:01;;;;;;;2.28;1.05;;;;;;;18.12;54.96;101849.13;4830177;29;20106;-78
2020/12/18 11:16:26;;;;;;;1.95;0.93;;;;;;;18.14;54.96;101843.06;4832810;29;21622;-78
2020/12/18 11:18:52;;;;;;;2.33;1.15;;;;;;;18.13;55.01;101835.25;4828059;29;20033;-77
2020/12/18 11:21:17;;;;;;;2.53;1.08;;;;;;;18.13;55.01;101828.28;4840557;29;20041;-78
2020/12/18 11:23:43;;;;;;;2.28;1.05;;;;;;;18.12;55.00;101831.78;4814615;29;20500;-78
2020/12/18 11:26:10;;;;;;;1.83;1.02;;;;;;;18.12;55.24;101820.47;4827857;29;20045;-78
2020/12/18 11:28:35;;;;;;;2.28;1.27;;;;;;;18.10;55.22;101823.09;4842467;29;20026;-78